This is the latest recevied weather packets stored in our database for station/object KJ4EWA. If no packets are shown the sender has not sent any weather packets the latest 10 day(s).
| Time | Temp. | Humidity | Pressure | Rain* | Wind** | Luminosity | Snow |
|---|---|---|---|---|---|---|---|
| 1777495750 | 27.22° C | 86% | 1015 hPa | 0 mm | - | 158 W/m² | - |
| 1777495446 | 27.22° C | 85% | 1015.1 hPa | 0 mm | - | 185 W/m² | - |
| 1777495142 | 27.78° C | 86% | 1015.3 hPa | 0 mm | - | 254 W/m² | - |
| 1777494840 | 27.22° C | 86% | 1015.3 hPa | 0 mm | - | 242 W/m² | - |
| 1777494537 | 27.78° C | 85% | 1015.6 hPa | 0 mm | - | 202 W/m² | - |
| 1777494234 | 27.22° C | 86% | 1015.5 hPa | 0 mm | - | 319 W/m² | - |
| 1777493931 | 27.22° C | 86% | 1015.4 hPa | 0 mm | - | 154 W/m² | - |
| 1777493629 | 27.78° C | 86% | 1015.6 hPa | 0 mm | - | 331 W/m² | - |
| 1777493326 | 27.22° C | 87% | 1015.7 hPa | 0 mm | - | 235 W/m² | - |
| 1777493023 | 27.22° C | 86% | 1015.7 hPa | 0 mm | - | 241 W/m² | - |
| 1777492720 | 27.22° C | 87% | 1015.6 hPa | 0 mm | - | 453 W/m² | - |
| 1777492419 | 27.78° C | 85% | 1015.6 hPa | 0 mm | - | 316 W/m² | - |
| 1777492117 | 28.33° C | 85% | 1015.6 hPa | 0 mm | - | 585 W/m² | - |
| 1777491814 | 27.78° C | 85% | 1016.1 hPa | 0 mm | - | 256 W/m² | - |
| 1777491510 | 27.22° C | 86% | 1016.1 hPa | 0 mm | - | 362 W/m² | - |
| 1777491208 | 27.22° C | 85% | 1016.2 hPa | 0 mm | - | 203 W/m² | - |
| 1777490903 | 27.22° C | 86% | 1016.6 hPa | 0 mm | - | 319 W/m² | - |
| 1777490600 | 27.78° C | 84% | 1016.4 hPa | 0 mm | - | 254 W/m² | - |
| 1777490296 | 27.22° C | 85% | 1016.6 hPa | 0 mm | - | 374 W/m² | - |
| 1777489994 | 27.22° C | 85% | 1016.7 hPa | 0 mm | - | 218 W/m² | - |
| 1777489691 | 28.33° C | 83% | 1016.3 hPa | 0 mm | - | 481 W/m² | - |
| 1777489388 | 28.89° C | 80% | 1016.8 hPa | 0 mm | - | 711 W/m² | - |
| 1777489085 | 28.33° C | 83% | 1016.7 hPa | 0 mm | - | 714 W/m² | - |
| 1777488781 | 28.33° C | 82% | 1017 hPa | 0 mm | - | 344 W/m² | - |
| 1777488479 | 28.89° C | 82% | 1016.8 hPa | 0 mm | - | 713 W/m² | - |
* Rain latest hour (hover to see other rain measurements)
** Current wind speed in m/s (hover to see current wind gust speed)